Time;durP1;ratioP1;P1;durP2;ratioP2;P2;SDS_P1;SDS_P2;PMS_P1;PMS_P2;Temp;Humidity;BMP_temperature;BMP_pressure;BME280_temperature;BME280_humidity;BME280_pressure;Samples;Min_cycle;Max_cycle;Signal;HPM_P1;HPM_P2
2024/04/02 00:00:10;;;;;;;1.88;1.73;;;;;;;12.91;76.60;99570.06;5065533;27;99146;-73
2024/04/02 00:02:36;;;;;;;12.82;3.10;;;;;;;13.05;74.42;99577.13;5064641;27;96717;-73
2024/04/02 00:05:02;;;;;;;5.50;1.77;;;;;;;12.37;76.02;99571.69;5046989;27;97142;-75
2024/04/02 00:07:29;;;;;;;3.72;1.40;;;;;;;12.63;74.61;99578.03;5056835;27;98932;-74
2024/04/02 00:09:54;;;;;;;2.70;1.90;;;;;;;12.69;74.52;99577.66;5052159;27;99385;-76
2024/04/02 00:12:20;;;;;;;;;;;;;;;12.88;72.29;99575.53;5058261;27;96744;-75
2024/04/02 00:14:46;;;;;;;1.67;1.27;;;;;;;12.70;72.46;99585.50;5056325;27;96725;-76
2024/04/02 00:17:14;;;;;;;;;;;;;;;12.58;72.59;99593.38;5052547;27;98792;-75
2024/04/02 00:19:39;;;;;;;;;;;;;;;12.41;72.68;99577.66;5048235;27;97140;-74
2024/04/02 00:22:05;;;;;;;2.60;0.98;;;;;;;12.53;70.58;99577.78;5058222;27;96862;-75
2024/04/02 00:24:30;;;;;;;2.08;1.02;;;;;;;12.68;69.42;99589.19;5050437;27;96765;-75
2024/04/02 00:26:57;;;;;;;;;;;;;;;12.89;68.79;99585.22;5052414;27;100288;-74
2024/04/02 00:29:22;;;;;;;3.40;1.00;;;;;;;13.25;67.13;99591.81;5051259;27;98814;-75
2024/04/02 00:31:48;;;;;;;;;;;;;;;13.52;65.02;99590.00;5043151;27;97162;-75
2024/04/02 00:34:15;;;;;;;2.47;0.90;;;;;;;13.30;63.98;99571.97;5049509;27;97239;-75
2024/04/02 00:36:41;;;;;;;3.67;1.05;;;;;;;13.35;64.27;99574.31;5058922;27;98822;-76
2024/04/02 00:39:07;;;;;;;1.02;0.60;;;;;;;13.54;63.21;99572.16;5056297;27;97717;-76
2024/04/02 00:41:33;;;;;;;;;;;;;;;13.83;62.41;99578.19;5059134;27;98592;-76
2024/04/02 00:43:58;;;;;;;3.78;0.85;;;;;;;13.79;62.23;99585.50;5051986;27;96841;-77
2024/04/02 00:46:25;;;;;;;;;;;;;;;13.66;62.82;99584.63;5062546;27;98824;-76
2024/04/02 00:48:51;;;;;;;3.00;1.20;;;;;;;13.65;63.18;99585.59;5041395;27;98884;-76
2024/04/02 00:51:19;;;;;;;1.63;0.90;;;;;;;13.47;64.28;99602.72;5052107;27;96885;-75
2024/04/02 00:53:44;;;;;;;2.50;1.65;;;;;;;13.31;65.75;99592.25;5046132;27;98576;-75
2024/04/02 00:56:10;;;;;;;;;;;;;;;13.22;66.82;99602.59;5052384;27;98758;-74
2024/04/02 00:58:36;;;;;;;3.47;1.58;;;;;;;13.30;67.17;99606.47;5053273;27;98842;-74
2024/04/02 01:01:02;;;;;;;;;;;;;;;13.05;68.94;99612.47;5052507;27;96858;-75
2024/04/02 01:03:27;;;;;;;4.35;1.70;;;;;;;13.07;69.63;99618.50;5047746;27;96816;-75
2024/04/02 01:05:54;;;;;;;;;;;;;;;12.86;70.97;99621.69;5044603;27;98878;-76
2024/04/02 01:08:20;;;;;;;3.15;1.77;;;;;;;12.89;71.89;99619.69;5057962;27;98778;-76
2024/04/02 01:10:47;;;;;;;3.45;2.17;;;;;;;12.92;72.04;99606.25;5047976;27;96822;-75
2024/04/02 01:13:13;;;;;;;4.70;2.08;;;;;;;12.87;72.35;99612.75;5049550;27;96975;-75
2024/04/02 01:15:40;;;;;;;4.28;2.00;;;;;;;13.03;71.86;99611.69;5050768;27;97834;-77
2024/04/02 01:18:05;;;;;;;3.47;1.83;;;;;;;13.12;71.30;99611.16;5054085;27;98934;-76
2024/04/02 01:20:32;;;;;;;;;;;;;;;13.35;70.55;99611.47;5064242;27;96913;-76
2024/04/02 01:22:57;;;;;;;3.25;1.80;;;;;;;13.03;71.63;99609.06;5051261;27;96950;-76
2024/04/02 01:25:24;;;;;;;;;;;;;;;13.22;71.07;99613.22;5056256;27;98856;-76
2024/04/02 01:27:50;;;;;;;4.47;1.80;;;;;;;13.26;71.08;99617.38;5056256;27;97700;-76
2024/04/02 01:30:16;;;;;;;;;;;;;;;13.45;70.01;99621.41;5052558;27;96849;-75
2024/04/02 01:32:42;;;;;;;3.70;1.63;;;;;;;13.74;68.86;99632.75;5044442;27;96875;-76
2024/04/02 01:35:08;;;;;;;;;;;;;;;13.18;70.64;99622.31;5052566;27;99079;-76
2024/04/02 01:37:34;;;;;;;1.88;1.13;;;;;;;13.39;70.49;99624.44;5048941;27;102184;-76
2024/04/02 01:40:00;;;;;;;;;;;;;;;13.32;70.71;99640.88;5055650;27;96838;-76
2024/04/02 01:42:26;;;;;;;3.30;1.40;;;;;;;13.33;70.75;99639.91;5059153;27;97793;-76
2024/04/02 01:44:53;;;;;;;6.78;1.35;;;;;;;13.83;68.60;99629.50;5057504;27;100030;-76
2024/04/02 01:47:18;;;;;;;4.28;1.63;;;;;;;13.66;68.70;99639.50;5055192;27;98833;-75
2024/04/02 01:49:44;;;;;;;;;;;;;;;13.49;69.79;99640.63;5056129;27;96692;-75
2024/04/02 01:52:10;;;;;;;3.47;1.60;;;;;;;13.84;68.70;99649.78;5069433;27;96714;-74
2024/04/02 01:54:36;;;;;;;;;;;;;;;13.55;69.77;99642.88;5048028;27;98913;-74
2024/04/02 01:57:01;;;;;;;3.58;1.30;;;;;;;13.42;70.15;99648.13;5049424;27;98786;-75
2024/04/02 01:59:29;;;;;;;;;;;;;;;13.39;70.35;99656.28;5056433;27;98855;-75
2024/04/02 02:01:54;;;;;;;1.75;1.20;;;;;;;13.55;69.85;99666.75;5062202;27;96895;-75
2024/04/02 02:04:20;;;;;;;;;;;;;;;13.04;71.05;99655.84;5062211;27;99170;-75
2024/04/02 02:06:46;;;;;;;1.88;1.15;;;;;;;12.98;72.41;99652.72;5056298;27;99104;-77
2024/04/02 02:09:13;;;;;;;;;;;;;;;13.26;71.33;99659.84;5054146;27;96728;-76
2024/04/02 02:11:38;;;;;;;2.03;1.27;;;;;;;13.54;70.34;99651.78;5057424;27;96745;-76
2024/04/02 02:14:05;;;;;;;1.80;1.10;;;;;;;13.26;70.95;99657.19;5044008;27;97658;-76
2024/04/02 02:16:32;;;;;;;5.80;1.10;;;;;;;13.07;72.45;99660.94;5048539;27;98831;-75
2024/04/02 02:18:58;;;;;;;5.45;1.13;;;;;;;12.96;72.99;99668.72;5063363;27;98816;-76
2024/04/02 02:21:23;;;;;;;1.58;1.20;;;;;;;12.65;74.55;99682.16;5056520;27;97266;-75
2024/04/02 02:23:50;;;;;;;;;;;;;;;13.19;72.60;99677.09;5056771;27;99567;-75
2024/04/02 02:26:17;;;;;;;3.20;0.90;;;;;;;13.06;72.38;99672.50;5046986;27;99003;-76
2024/04/02 02:28:43;;;;;;;2.25;0.93;;;;;;;13.00;72.91;99659.63;5051685;27;97026;-75
2024/04/02 02:31:08;;;;;;;2.25;1.15;;;;;;;12.45;75.46;99664.81;5050507;27;96945;-76
2024/04/02 02:33:36;;;;;;;;;;;;;;;12.79;74.46;99674.22;5057074;27;98814;-76
2024/04/02 02:36:01;;;;;;;0.82;0.68;;;;;;;12.57;74.91;99673.81;5046493;27;101043;-75
2024/04/02 02:38:27;;;;;;;1.55;0.70;;;;;;;12.43;76.41;99666.69;5046424;27;96881;-75
2024/04/02 02:40:58;;;;;;;2.67;1.00;;;;;;;12.41;76.85;99667.72;5056862;27;97073;-74
2024/04/02 02:43:24;;;;;;;3.53;1.33;;;;;;;12.63;75.79;99670.78;5050232;27;98930;-75
2024/04/02 02:45:51;;;;;;;1.98;0.85;;;;;;;12.79;74.99;99674.22;5050454;27;98793;-75
2024/04/02 02:48:17;;;;;;;4.55;0.88;;;;;;;12.80;74.83;99669.78;5049419;27;97084;-75
2024/04/02 02:50:44;;;;;;;4.97;1.20;;;;;;;12.88;74.48;99668.34;5049198;27;96774;-75
2024/04/02 02:53:10;;;;;;;2.13;0.60;;;;;;;12.92;74.12;99663.72;5061434;27;98773;-75
2024/04/02 02:55:36;;;;;;;1.30;0.63;;;;;;;12.69;75.21;99665.97;5052698;27;99184;-75
2024/04/02 02:58:02;;;;;;;;;;;;;;;12.37;76.75;99667.06;5060054;27;96944;-75
2024/04/02 03:00:27;;;;;;;1.88;0.70;;;;;;;12.15;78.25;99666.63;5058446;27;96903;-75
2024/04/02 03:02:54;;;;;;;;;;;;;;;12.58;76.49;99676.38;5057651;27;99261;-76
2024/04/02 03:05:19;;;;;;;1.40;0.65;;;;;;;12.35;77.38;99674.25;5045125;27;98936;-76
2024/04/02 03:07:47;;;;;;;;;;;;;;;12.08;79.23;99686.50;5054961;27;96767;-76
2024/04/02 03:10:12;;;;;;;3.00;0.85;;;;;;;12.30;78.06;99668.38;5052946;27;96753;-78
2024/04/02 03:12:38;;;;;;;4.53;0.93;;;;;;;12.46;77.68;99674.47;5045149;27;98871;-77
2024/04/02 03:15:05;;;;;;;6.30;1.00;;;;;;;12.24;78.31;99681.97;5047928;27;98783;-77
2024/04/02 03:17:32;;;;;;;4.13;0.70;;;;;;;12.38;78.66;99674.06;5041680;27;96736;-76
2024/04/02 03:19:57;;;;;;;1.95;0.93;;;;;;;12.72;76.34;99680.84;5051820;27;96977;-77
2024/04/02 03:22:23;;;;;;;;;;;;;;;12.84;76.51;99682.75;5052925;27;98933;-76
2024/04/02 03:24:51;;;;;;;1.48;0.63;;;;;;;12.43;77.22;99687.03;5054438;27;98718;-76
2024/04/02 03:27:18;;;;;;;1.20;1.10;;;;;;;12.28;78.76;99689.66;5046375;27;98064;-76
2024/04/02 03:29:43;;;;;;;1.08;0.98;;;;;;;12.46;78.17;99693.03;5055573;27;96924;-77
2024/04/02 03:32:09;;;;;;;;;;;;;;;12.04;79.80;99693.75;5051517;27;100052;-77
2024/04/02 03:34:35;;;;;;;2.45;1.08;;;;;;;12.18;79.59;99690.28;5047272;27;98802;-76
2024/04/02 03:37:01;;;;;;;;;;;;;;;11.87;81.38;99693.88;5050239;27;96918;-76
2024/04/02 03:39:27;;;;;;;2.15;0.82;;;;;;;12.14;79.97;99694.91;5056657;27;96714;-75
2024/04/02 03:41:56;;;;;;;2.50;1.10;;;;;;;12.32;79.39;99696.50;5049522;27;97064;-76
2024/04/02 03:44:23;;;;;;;3.55;1.02;;;;;;;11.80;81.64;99687.22;5044445;27;98892;-76
2024/04/02 03:46:48;;;;;;;2.25;1.15;;;;;;;11.85;81.48;99693.94;5043979;27;96819;-76
2024/04/02 03:49:14;;;;;;;;;;;;;;;11.90;81.68;99689.25;5057447;27;96907;-76
2024/04/02 03:51:40;;;;;;;2.35;1.23;;;;;;;12.06;81.13;99693.66;5063369;27;97787;-76
2024/04/02 03:54:06;;;;;;;;;;;;;;;12.28;79.96;99689.66;5060537;27;99052;-76
2024/04/02 03:56:34;;;;;;;2.10;0.90;;;;;;;12.61;78.24;99689.44;5054954;27;97110;-76
2024/04/02 03:59:02;;;;;;;1.90;0.70;;;;;;;12.31;79.30;99700.06;5064575;27;96859;-76
2024/04/02 04:01:27;;;;;;;2.58;1.05;;;;;;;12.26;80.18;99707.44;5042973;27;100845;-76
2024/04/02 04:03:53;;;;;;;;;;;;;;;12.19;80.47;99710.53;5049071;27;98743;-76
2024/04/02 04:06:19;;;;;;;3.20;1.35;;;;;;;12.20;80.50;99722.84;5044984;27;96806;-76
2024/04/02 04:08:45;;;;;;;;;;;;;;;12.26;80.48;99706.59;5059673;27;96784;-75
2024/04/02 04:11:11;;;;;;;3.50;1.30;;;;;;;12.22;80.90;99716.50;5041784;27;97993;-76
2024/04/02 04:13:37;;;;;;;;;;;;;;;12.25;80.87;99724.28;5047382;27;98683;-75
2024/04/02 04:16:04;;;;;;;3.30;1.40;;;;;;;12.21;81.39;99720.09;5047737;27;97830;-76
2024/04/02 04:18:31;;;;;;;2.88;1.40;;;;;;;12.24;81.22;99725.22;5056335;27;96755;-75
2024/04/02 04:20:58;;;;;;;2.17;1.70;;;;;;;12.56;79.73;99725.09;5047094;27;98955;-76
2024/04/02 04:23:25;;;;;;;2.42;1.52;;;;;;;12.47;79.87;99736.28;5056860;27;98597;-76
2024/04/02 04:25:54;;;;;;;3.88;1.83;;;;;;;12.47;80.08;99734.44;5052308;27;97104;-76
2024/04/02 04:28:20;;;;;;;3.05;1.83;;;;;;;12.25;80.72;99742.81;5052481;27;96999;-77
2024/04/02 04:30:51;;;;;;;2.45;1.60;;;;;;;11.86;83.11;99745.09;5062332;27;101463;-77
2024/04/02 04:33:19;;;;;;;3.13;2.00;;;;;;;11.94;83.27;99738.44;5049110;27;98948;-76
2024/04/02 04:35:45;;;;;;;3.22;1.85;;;;;;;12.01;82.90;99740.75;5048570;27;96763;-76
2024/04/02 04:38:11;;;;;;;;;;;;;;;12.27;82.31;99743.56;5066205;27;96769;-76
2024/04/02 04:40:37;;;;;;;5.22;2.03;;;;;;;12.36;81.39;99743.03;5055120;27;98468;-76
2024/04/02 04:43:03;;;;;;;;;;;;;;;12.15;82.68;99740.78;5061163;27;100505;-76
2024/04/02 04:45:28;;;;;;;3.58;2.17;;;;;;;11.78;84.88;99737.59;5054140;27;96971;-76
2024/04/02 04:47:56;;;;;;;;;;;;;;;11.76;85.40;99738.59;5062798;27;97142;-77
2024/04/02 04:50:25;;;;;;;2.70;2.10;;;;;;;11.77;85.13;99737.66;5050931;27;98861;-76
2024/04/02 04:52:51;;;;;;;4.20;2.72;;;;;;;11.94;84.79;99734.94;5049715;27;99234;-76
2024/04/02 04:55:18;;;;;;;3.45;2.10;;;;;;;11.89;84.94;99734.31;5039556;27;98723;-76
2024/04/02 04:57:43;;;;;;;4.43;2.00;;;;;;;11.99;84.83;99735.53;5051317;27;96930;-77
2024/04/02 05:00:12;;;;;;;;;;;;;;;12.35;83.01;99728.06;5055313;27;99059;-76
2024/04/02 05:02:37;;;;;;;3.67;2.17;;;;;;;11.95;84.66;99731.31;5043370;27;98865;-74
2024/04/02 05:05:04;;;;;;;;;;;;;;;12.12;83.97;99731.22;5047734;27;97756;-73
2024/04/02 05:07:30;;;;;;;3.47;2.42;;;;;;;12.06;84.62;99741.31;5060697;27;96862;-74
2024/04/02 05:09:57;;;;;;;2.85;2.38;;;;;;;11.96;85.33;99740.97;5047324;27;99155;-74
2024/04/02 05:12:22;;;;;;;3.20;2.40;;;;;;;12.17;84.23;99739.75;5041954;27;98864;-74
2024/04/02 05:14:48;;;;;;;;;;;;;;;11.72;85.27;99742.34;5042094;27;96758;-74
2024/04/02 05:17:14;;;;;;;3.20;2.60;;;;;;;11.87;85.39;99745.03;5057486;27;96797;-74
2024/04/02 05:19:40;;;;;;;;;;;;;;;11.76;86.16;99757.13;5055846;27;98829;-74
2024/04/02 05:22:06;;;;;;;4.38;2.25;;;;;;;11.41;87.86;99759.06;5049074;27;99200;-73
2024/04/02 05:24:34;;;;;;;5.25;2.78;;;;;;;11.66;87.10;99742.69;5056391;27;97640;-73
2024/04/02 05:26:59;;;;;;;7.00;3.20;;;;;;;11.82;86.05;99749.69;5052554;27;97173;-75
2024/04/02 05:29:26;;;;;;;;;;;;;;;11.74;86.77;99753.72;5054190;27;98922;-75
2024/04/02 05:31:51;;;;;;;4.88;2.60;;;;;;;11.70;86.64;99755.66;5049653;27;99082;-75
2024/04/02 05:34:17;;;;;;;;;;;;;;;12.32;83.92;99760.06;5052506;27;96783;-75
2024/04/02 05:36:42;;;;;;;3.90;2.42;;;;;;;12.38;83.33;99772.94;5054363;27;97034;-75
2024/04/02 05:39:09;;;;;;;;;;;;;;;12.24;83.34;99769.38;5050353;27;98907;-74
2024/04/02 05:41:36;;;;;;;5.07;3.15;;;;;;;12.16;84.29;99776.91;5060688;27;99396;-75
2024/04/02 05:44:02;;;;;;;2.78;2.58;;;;;;;12.41;82.90;99765.75;5052790;27;96692;-74
2024/04/02 05:46:28;;;;;;;3.33;2.60;;;;;;;12.02;84.25;99760.94;5051332;27;96921;-75
2024/04/02 05:48:54;;;;;;;;;;;;;;;12.14;84.21;99771.69;5053073;27;101907;-74
2024/04/02 05:51:19;;;;;;;5.93;2.60;;;;;;;12.32;83.33;99775.09;5047834;27;99233;-75
2024/04/02 05:53:46;;;;;;;;;;;;;;;12.31;82.38;99766.28;5052415;27;96622;-74
2024/04/02 05:56:13;;;;;;;5.97;2.55;;;;;;;12.23;83.23;99778.28;5051893;27;96853;-74
2024/04/02 05:58:40;;;;;;;4.65;3.05;;;;;;;12.61;81.77;99773.38;5051044;27;98882;-74
2024/04/02 06:01:06;;;;;;;7.38;2.90;;;;;;;12.76;80.61;99773.34;5053445;27;97741;-75
2024/04/02 06:03:33;;;;;;;5.47;3.10;;;;;;;12.83;80.13;99771.16;5048568;27;97069;-75
2024/04/02 06:06:08;;;;;;;5.97;2.53;;;;;;;12.20;83.38;99771.38;5051154;27;96737;-75
2024/04/02 06:08:34;;;;;;;6.43;2.85;;;;;;;12.69;81.78;99776.44;5050599;27;97836;-74
2024/04/02 06:11:00;;;;;;;6.70;2.55;;;;;;;12.67;80.25;99771.22;5053059;27;97993;-74
2024/04/02 06:13:26;;;;;;;;;;;;;;;12.91;79.73;99774.22;5047122;27;96790;-74
2024/04/02 06:15:53;;;;;;;4.60;3.13;;;;;;;12.97;78.93;99763.25;5052224;27;96805;-74
2024/04/02 06:18:20;;;;;;;3.90;3.38;;;;;;;13.08;78.85;99768.72;5044889;27;98829;-74
2024/04/02 06:20:45;;;;;;;5.15;2.83;;;;;;;13.04;78.57;99769.88;5050036;27;99326;-74
2024/04/02 06:23:11;;;;;;;;;;;;;;;13.12;78.53;99772.97;5051349;27;96711;-74
2024/04/02 06:25:37;;;;;;;4.70;3.05;;;;;;;13.37;77.57;99772.28;5049928;27;97089;-74
2024/04/02 06:28:03;;;;;;;;;;;;;;;13.50;76.52;99759.97;5042570;27;99235;-74
2024/04/02 06:30:29;;;;;;;4.65;2.83;;;;;;;13.09;78.35;99773.09;5048142;27;98758;-75
2024/04/02 06:32:56;;;;;;;;;;;;;;;13.35;77.28;99760.06;5048113;27;96743;-74
2024/04/02 06:35:21;;;;;;;4.40;3.00;;;;;;;13.69;75.44;99753.47;5054012;27;96887;-74
2024/04/02 06:37:48;;;;;;;;;;;;;;;13.03;77.53;99756.72;5050291;27;98825;-74
2024/04/02 06:40:13;;;;;;;7.72;3.15;;;;;;;12.86;78.73;99770.16;5053696;27;99156;-75
2024/04/02 06:42:40;;;;;;;6.38;2.88;;;;;;;13.13;77.75;99768.47;5050221;27;96770;-75
2024/04/02 06:45:06;;;;;;;6.80;2.67;;;;;;;12.75;79.60;99781.38;5047164;27;96837;-74
2024/04/02 06:47:33;;;;;;;;;;;;;;;13.53;76.75;99764.19;5049100;27;98804;-75
2024/04/02 06:49:59;;;;;;;6.13;2.90;;;;;;;13.35;76.26;99771.53;5059763;27;100088;-75
2024/04/02 06:52:29;;;;;;;5.97;2.92;;;;;;;13.24;76.88;99762.53;5045468;27;97044;-75
2024/04/02 06:54:55;;;;;;;4.75;2.50;;;;;;;13.50;76.36;99764.41;5053761;27;96804;-75
2024/04/02 06:57:21;;;;;;;;;;;;;;;13.22;76.53;99777.69;5054470;27;101148;-75
2024/04/02 06:59:46;;;;;;;9.50;3.20;;;;;;;13.40;76.00;99780.03;5047675;27;98181;-75
2024/04/02 07:02:12;;;;;;;;;;;;;;;13.25;76.27;99782.81;5050003;27;96644;-75
2024/04/02 07:04:39;;;;;;;6.25;2.20;;;;;;;12.89;78.10;99775.25;5054776;27;96822;-74
2024/04/02 07:07:06;;;;;;;5.57;2.65;;;;;;;13.34;75.75;99799.00;5052430;27;99030;-75
2024/04/02 07:09:33;;;;;;;4.93;2.75;;;;;;;13.38;75.16;99789.91;5057889;27;98754;-74
2024/04/02 07:11:59;;;;;;;5.30;2.30;;;;;;;13.29;75.89;99798.44;5055841;27;98871;-75
2024/04/02 07:14:25;;;;;;;14.45;2.70;;;;;;;13.36;74.63;99789.16;5052448;27;97149;-75
2024/04/02 07:16:53;;;;;;;;;;;;;;;13.76;73.99;99807.88;5052592;27;98983;-75
2024/04/02 07:19:18;;;;;;;8.95;2.22;;;;;;;13.69;74.30;99796.81;5052225;27;97665;-76
2024/04/02 07:21:44;;;;;;;;;;;;;;;14.13;71.34;99803.72;5045723;27;96705;-76
2024/04/02 07:24:11;;;;;;;4.35;2.25;;;;;;;14.49;69.96;99800.50;5046702;27;96915;-75
2024/04/02 07:26:42;;;;;;;9.40;1.70;;;;;;;14.15;70.46;99801.81;5051430;27;98510;-75
2024/04/02 07:29:09;;;;;;;5.68;1.70;;;;;;;14.15;70.55;99802.69;5047585;27;97577;-75
2024/04/02 07:31:35;;;;;;;4.60;1.88;;;;;;;14.49;69.63;99812.00;5050324;27;96652;-74
2024/04/02 07:34:01;;;;;;;5.20;2.00;;;;;;;14.19;69.71;99809.50;5060021;27;96951;-74
2024/04/02 07:36:27;;;;;;;;;;;;;;;14.59;68.57;99817.53;5050672;27;101046;-74
2024/04/02 07:38:52;;;;;;;5.25;1.50;;;;;;;14.81;67.67;99827.59;5054042;27;99172;-74
2024/04/02 07:41:20;;;;;;;;;;;;;;;15.09;67.29;99836.28;5054625;27;97179;-75
2024/04/02 07:43:45;;;;;;;3.58;1.63;;;;;;;15.45;65.26;99853.31;5056673;27;98605;-74
2024/04/02 07:46:11;;;;;;;;;;;;;;;15.37;64.44;99843.19;5044593;27;99191;-75
2024/04/02 07:48:37;;;;;;;6.40;1.70;;;;;;;14.92;66.32;99857.81;5053863;27;98859;-74
2024/04/02 07:51:10;;;;;;;;;;;;;;;14.50;66.77;99852.72;5050696;27;96792;-74
2024/04/02 07:53:35;;;;;;;3.65;1.67;;;;;;;14.74;66.55;99859.91;5048478;27;97338;-74
2024/04/02 07:56:02;;;;;;;;;;;;;;;14.46;67.87;99867.13;5048772;27;98654;-74
2024/04/02 07:58:29;;;;;;;4.70;1.90;;;;;;;14.67;66.66;99866.59;5060001;27;102225;-74
2024/04/02 08:00:55;;;;;;;7.80;1.80;;;;;;;14.52;66.68;99864.94;5065320;27;96776;-74
2024/04/02 08:03:21;;;;;;;4.15;1.45;;;;;;;14.50;66.66;99872.19;5048654;27;98423;-74
2024/04/02 08:05:55;;;;;;;;;;;;;;;13.75;69.62;99873.41;5050568;27;97596;-74
2024/04/02 08:08:20;;;;;;;5.90;1.50;;;;;;;13.74;69.77;99863.75;5052937;27;99116;-74
2024/04/02 08:10:46;;;;;;;;;;;;;;;13.65;70.70;99869.63;5052476;27;96905;-74
2024/04/02 08:13:15;;;;;;;5.38;1.50;;;;;;;13.83;69.89;99871.13;5050504;27;96944;-76
2024/04/02 08:15:43;;;;;;;5.90;1.55;;;;;;;14.42;67.62;99874.47;5036257;27;100886;-74
2024/04/02 08:18:08;;;;;;;11.30;1.40;;;;;;;13.87;69.50;99867.34;5051277;27;98232;-75
2024/04/02 08:20:35;;;;;;;;;;;;;;;14.21;69.28;99871.34;5053482;27;98104;-74
2024/04/02 08:23:00;;;;;;;4.70;1.38;;;;;;;14.75;67.01;99872.25;5059960;27;96900;-74
2024/04/02 08:25:26;;;;;;;;;;;;;;;14.90;66.26;99866.88;5055441;27;100614;-73
2024/04/02 08:27:52;;;;;;;1.80;0.93;;;;;;;14.98;65.94;99873.38;5053011;27;101038;-74
2024/04/02 08:30:18;;;;;;;;;;;;;;;14.97;65.58;99878.78;5048914;27;96809;-72
2024/04/02 08:32:45;;;;;;;3.15;0.93;;;;;;;14.15;68.03;99878.88;5048664;27;96779;-76
2024/04/02 08:35:11;;;;;;;3.88;1.35;;;;;;;14.22;68.06;99865.09;5053853;27;98898;-75
2024/04/02 08:37:37;;;;;;;5.68;1.20;;;;;;;14.33;67.99;99875.03;5046420;27;97559;-74
2024/04/02 08:40:04;;;;;;;;;;;;;;;14.18;68.23;99876.00;5048303;27;97118;-74
2024/04/02 08:42:30;;;;;;;;;;;;;;;14.12;67.56;99871.09;5043584;27;96788;-74
2024/04/02 08:44:57;;;;;;;5.43;0.93;;;;;;;14.45;67.06;99882.22;5054157;27;98778;-74
2024/04/02 08:47:25;;;;;;;7.00;1.20;;;;;;;14.88;65.39;99893.56;5050156;27;99031;-75
2024/04/02 08:49:54;;;;;;;4.07;1.20;;;;;;;14.72;65.37;99887.56;5045983;27;96645;-76
2024/04/02 08:52:19;;;;;;;3.80;1.20;;;;;;;15.40;63.80;99882.91;5046771;27;98432;-75
2024/04/02 08:54:46;;;;;;;;;;;;;;;15.45;63.18;99896.75;5046495;27;98833;-75
2024/04/02 08:57:12;;;;;;;4.53;1.13;;;;;;;15.50;62.87;99896.44;5046697;27;97466;-76
2024/04/02 08:59:41;;;;;;;4.18;1.05;;;;;;;15.54;62.65;99892.66;5053043;27;96878;-75
2024/04/02 09:02:09;;;;;;;2.90;0.88;;;;;;;14.77;64.84;99912.03;5044819;27;96998;-74
2024/04/02 09:04:36;;;;;;;3.70;0.98;;;;;;;14.55;65.78;99895.78;5050871;27;99345;-75
2024/04/02 09:07:02;;;;;;;6.70;1.15;;;;;;;15.11;64.01;99892.03;5043174;27;99028;-75
2024/04/02 09:09:30;;;;;;;1.88;0.90;;;;;;;14.86;63.99;99891.97;5040829;27;96782;-75
2024/04/02 09:11:55;;;;;;;2.38;0.90;;;;;;;14.80;65.11;99900.34;5046601;27;96911;-74
2024/04/02 09:14:22;;;;;;;;;;;;;;;15.25;62.96;99905.25;5050051;27;98874;-74
2024/04/02 09:16:48;;;;;;;3.13;0.75;;;;;;;15.41;62.48;99907.72;5044305;27;98777;-74
2024/04/02 09:19:15;;;;;;;5.47;1.10;;;;;;;15.30;62.70;99908.44;5048802;27;96716;-74
2024/04/02 09:21:40;;;;;;;3.53;0.88;;;;;;;15.43;62.43;99914.63;5049527;27;96997;-74
2024/04/02 09:24:08;;;;;;;;;;;;;;;15.58;60.98;99903.91;5047376;27;98842;-74
2024/04/02 09:26:34;;;;;;;4.00;0.88;;;;;;;15.82;60.07;99916.38;5044545;27;99104;-74
2024/04/02 09:29:00;;;;;;;;;;;;;;;15.58;61.00;99904.78;5045391;27;96881;-74
2024/04/02 09:31:27;;;;;;;3.78;0.88;;;;;;;14.95;61.46;99894.88;5044835;27;96860;-74
2024/04/02 09:33:57;;;;;;;7.43;1.20;;;;;;;15.45;59.58;99901.22;5052916;27;99742;-74
2024/04/02 09:36:43;;;;;;;17.90;1.27;;;;;;;14.72;59.15;99909.69;5043630;27;99181;-73
2024/04/02 09:39:13;;;;;;;4.38;0.77;;;;;;;14.83;60.02;99916.13;5049000;27;96968;-73
2024/04/02 09:41:40;;;;;;;4.65;0.95;;;;;;;15.36;58.60;99913.34;5044321;27;97729;-73
2024/04/02 09:44:10;;;;;;;16.35;1.20;;;;;;;15.48;58.02;99912.53;5045166;27;98975;-74
2024/04/02 09:46:37;;;;;;;1.15;0.52;;;;;;;15.10;59.93;99915.09;5050883;27;99701;-74
2024/04/02 09:49:06;;;;;;;3.22;0.60;;;;;;;15.08;60.08;99905.53;5049302;27;96826;-73
2024/04/02 09:51:32;;;;;;;3.83;0.82;;;;;;;15.48;58.90;99909.88;5050539;27;96960;-74
2024/04/02 09:53:59;;;;;;;;;;;;;;;15.70;58.44;99903.06;5047618;27;99263;-74
2024/04/02 09:56:27;;;;;;;4.07;0.90;;;;;;;15.47;57.37;99905.50;5049602;27;98994;-73
2024/04/02 09:58:53;;;;;;;1.83;0.63;;;;;;;15.38;57.89;99911.44;5045022;27;96735;-73
2024/04/02 10:01:21;;;;;;;1.65;0.80;;;;;;;15.31;57.84;99920.81;5046631;27;96912;-74
2024/04/02 10:03:49;;;;;;;5.57;1.05;;;;;;;15.76;55.60;99915.94;5041694;27;98898;-74
2024/04/02 10:06:14;;;;;;;5.40;1.08;;;;;;;15.46;57.66;99905.59;5047139;27;99257;-74
2024/04/02 10:08:40;;;;;;;;;;;;;;;15.43;56.88;99911.97;5048896;27;96810;-73
2024/04/02 10:11:12;;;;;;;4.88;0.73;;;;;;;15.72;55.26;99919.81;5049244;27;96760;-75
2024/04/02 10:13:40;;;;;;;5.10;0.50;;;;;;;15.78;55.49;99927.38;5049743;27;98187;-74
2024/04/02 10:16:06;;;;;;;6.28;0.70;;;;;;;15.81;54.68;99911.19;5048061;27;99245;-75
2024/04/02 10:18:32;;;;;;;4.00;0.60;;;;;;;15.58;55.09;99920.75;5046399;27;96730;-74
2024/04/02 10:20:59;;;;;;;2.72;0.63;;;;;;;15.81;54.03;99917.38;5055381;27;97018;-74
2024/04/02 10:23:26;;;;;;;5.13;0.65;;;;;;;16.39;53.16;99921.19;5045098;27;101384;-74
2024/04/02 10:25:52;;;;;;;6.45;1.02;;;;;;;15.69;54.43;99933.31;5053870;27;97619;-73
2024/04/02 10:28:24;;;;;;;3.17;0.90;;;;;;;16.19;53.75;99932.44;5052455;27;96845;-74
2024/04/02 10:30:51;;;;;;;4.10;0.88;;;;;;;16.35;53.06;99928.56;5046977;27;96723;-74
2024/04/02 10:33:18;;;;;;;6.97;0.93;;;;;;;16.29;53.19;99936.13;5051050;27;98984;-74
2024/04/02 10:35:44;;;;;;;6.95;1.10;;;;;;;16.13;53.36;99925.75;5048670;27;97688;-75
2024/04/02 10:38:10;;;;;;;;;;;;;;;16.59;53.23;99911.75;5048461;27;96692;-74
2024/04/02 10:40:37;;;;;;;4.22;0.65;;;;;;;15.63;55.85;99923.94;5049011;27;96815;-74
2024/04/02 10:43:04;;;;;;;3.03;0.77;;;;;;;15.50;57.12;99915.06;5051620;27;99068;-73
2024/04/02 10:45:30;;;;;;;3.38;0.60;;;;;;;15.22;57.93;99928.56;5048699;27;99224;-74
2024/04/02 10:47:58;;;;;;;;;;;;;;;15.09;58.05;99939.19;5052222;27;96970;-74
2024/04/02 10:50:25;;;;;;;10.48;1.17;;;;;;;15.16;56.71;99928.00;5045810;27;97246;-74
2024/04/02 10:52:51;;;;;;;4.20;0.70;;;;;;;15.32;56.91;99937.63;5048805;27;98863;-74
2024/04/02 10:55:17;;;;;;;10.15;0.73;;;;;;;14.99;57.44;99938.94;5052077;27;99010;-74
2024/04/02 10:57:43;;;;;;;;;;;;;;;14.86;57.59;99948.66;5048074;27;96952;-73
2024/04/02 11:00:11;;;;;;;3.58;0.70;;;;;;;15.62;55.85;99951.53;5051179;27;96748;-74
2024/04/02 11:02:38;;;;;;;2.95;0.60;;;;;;;15.65;55.77;99948.66;5051056;27;99005;-73
2024/04/02 11:05:06;;;;;;;6.22;0.63;;;;;;;15.91;54.97;99944.19;5049164;27;98762;-75
2024/04/02 11:07:33;;;;;;;4.28;0.80;;;;;;;16.14;53.18;99951.44;5051766;27;96685;-73
2024/04/02 11:10:00;;;;;;;2.83;0.45;;;;;;;15.32;55.92;99941.13;5047443;27;96966;-75
2024/04/02 11:12:27;;;;;;;2.58;0.90;;;;;;;16.00;54.36;99940.03;5048760;27;99567;-74
2024/04/02 11:14:53;;;;;;;8.30;0.93;;;;;;;16.20;53.03;99942.16;5048738;27;99325;-74
2024/04/02 11:17:20;;;;;;;3.38;0.98;;;;;;;15.67;53.99;99943.25;5052149;27;98881;-74
2024/04/02 11:19:46;;;;;;;5.55;0.80;;;;;;;15.24;55.08;99939.94;5045308;27;97039;-75
2024/04/02 11:25:09;;;;;;;2.28;0.85;;;;;;;15.29;55.13;99964.47;5044856;27;96696;-74
2024/04/02 11:27:35;;;;;;;5.60;0.90;;;;;;;15.58;54.86;99951.84;5048307;27;96836;-74
2024/04/02 11:30:02;;;;;;;3.42;0.75;;;;;;;15.30;55.68;99964.34;5047317;27;97660;-74
2024/04/02 11:32:27;;;;;;;2.45;0.63;;;;;;;15.93;53.75;99967.13;5050912;27;99196;-75
2024/04/02 11:34:57;;;;;;;;;;;;;;;16.17;52.92;99974.34;5048439;27;99025;-74
2024/04/02 11:37:24;;;;;;;3.50;0.70;;;;;;;15.58;55.16;99973.16;5048404;27;96766;-74
2024/04/02 11:39:51;;;;;;;3.55;0.80;;;;;;;15.95;54.36;99982.97;5047710;27;97062;-73
2024/04/02 11:42:16;;;;;;;9.88;0.90;;;;;;;15.90;54.62;99975.31;5050726;27;98838;-75
2024/04/02 11:44:43;;;;;;;;;;;;;;;15.94;54.95;99986.63;5056179;27;99094;-75
2024/04/02 11:47:08;;;;;;;2.70;0.70;;;;;;;16.37;53.64;99986.25;5059964;27;97249;-74
2024/04/02 11:49:37;;;;;;;;;;;;;;;16.38;53.76;99985.28;5055255;27;96804;-74